Crew | Aerofun Virtual



 METAR AND TAF INFORMATION
METAR FOR ESNU
ADDS - METARS form results

(0814 UTC 22 July 2019)
Data provider http://aviationweather.gov/metar/data/
 
METAR text: ESNU 220750Z VRB03KT CAVOK 24/13 Q1014
Conditions at: ESNU (UMEA AIRPORT , SE) observed 0750 UTC 22 July 2019
Temperature: 24.0°C (75°F)
Dewpoint: 13.0°C (55°F) [RH = 50%]
Pressure (altimeter): 29.94 inches Hg (1014.0 mb)
Winds: variable direction winds at 3 MPH (3 knots; 1.5 m/s)
Visibility: 6 or more miles (10+ km)
Ceiling: ceiling and visibility are OK
Clouds: unknown
Weather: no significant weather observed at this time

METAR text: ESNU 220720Z VRB02KT CAVOK 23/13 Q1014
Conditions at: ESNU (UMEA AIRPORT , SE) observed 0720 UTC 22 July 2019
Temperature: 23.0°C (73°F)
Dewpoint: 13.0°C (55°F) [RH = 53%]
Pressure (altimeter): 29.94 inches Hg (1014.0 mb)
Winds: variable direction winds at 2 MPH (2 knots; 1.0 m/s)
Visibility: 6 or more miles (10+ km)
Ceiling: ceiling and visibility are OK
Clouds: unknown
Weather: no significant weather observed at this time

Forecast for: ESNU (UMEA AIRPORT , SE)
Text: TAF ESNU 220530Z 2206/2215 VRB02KT CAVOK
Forecast period: 0600 to 0900 UTC 22 July 2019
Forecast type: FROM: standard forecast or significant change
Winds: variable direction winds at 2 MPH (2 knots; 1.0 m/s)
Visibility: 6 or more miles 10+ km)
Ceiling: unknown
Clouds: missing
Weather: NSW  (no significant weather)
Text: BECMG 2209/2211 15010KT
Forecast period: 0900 to 1500 UTC 22 July 2019
Forecast type: BECOMING: Conditions expected to become as follows by 1100 UTC 22 July 2019
Winds: from the SSE (150 degrees) at 12 MPH (10 knots; 5.1 m/s)
Visibility: 6 or more miles 10+ km)
Ceiling: unknown
Clouds: missing
Weather: NSW  (no significant weather)

 AIRPORT MAP

 RUNWAY INFORMATION
Runway 14 Runway length 7551 ft Runway width 148 ft
Runway elevation 24 ft Runway displaced threshold 0 ft Runway heading 138
Runway 32 Runway length 7551 ft Runway width 148 ft
Runway elevation 17 ft Runway displaced threshold 196 ft Runway heading 318

 AIRPORT FREQUENCIES
Type TWR Name TWR Frequency 119.8 MHZ

 AIRPORT NEAR NAVIGATION AIDS
Type VOR-DME Name Umea Frequency 114100 KHZ